<?xml version="1.0" encoding="UTF-8" standalone="no" ?><gpx xmlns="http://www.topografix.com/GPX/1/1" xmlns:gpxx="http://www.garmin.com/xmlschemas/GpxExtensions/v3" xmlns:gpxtrkx="http://www.garmin.com/xmlschemas/TrackStatsExtension/v1" xmlns:wptx1="http://www.garmin.com/xmlschemas/WaypointExtension/v1" xmlns:gpxtpx="http://www.garmin.com/xmlschemas/TrackPointExtension/v1" creator="Oregon 700" version="1.1" xmlns:xsi="http://www.w3.org/2001/XMLSchema-instance" xsi:schemaLocation="http://www.topografix.com/GPX/1/1 http://www.topografix.com/GPX/1/1/gpx.xsd http://www.garmin.com/xmlschemas/GpxExtensions/v3 http://www8.garmin.com/xmlschemas/GpxExtensionsv3.xsd http://www.garmin.com/xmlschemas/TrackStatsExtension/v1 http://www8.garmin.com/xmlschemas/TrackStatsExtension.xsd http://www.garmin.com/xmlschemas/WaypointExtension/v1 http://www8.garmin.com/xmlschemas/WaypointExtensionv1.xsd http://www.garmin.com/xmlschemas/TrackPointExtension/v1 http://www.garmin.com/xmlschemas/TrackPointExtensionv1.xsd"><metadata><link href="http://www.garmin.com"><text>Garmin International</text></link><time>2022-01-05T11:56:08Z</time></metadata><trk><name>2022-01-05 11:56:05</name><extensions><gpxx:TrackExtension><gpxx:DisplayColor>Cyan</gpxx:DisplayColor></gpxx:TrackExtension><gpxtrkx:TrackStatsExtension><gpxtrkx:Distance>3755.000</gpxtrkx:Distance><gpxtrkx:TimerTime>6924</gpxtrkx:TimerTime><gpxtrkx:TotalElapsedTime>6930</gpxtrkx:TotalElapsedTime><gpxtrkx:MovingTime>4857</gpxtrkx:MovingTime><gpxtrkx:StoppedTime>2072</gpxtrkx:StoppedTime><gpxtrkx:MovingSpeed>0.773</gpxtrkx:MovingSpeed><gpxtrkx:MaxSpeed>1.365</gpxtrkx:MaxSpeed><gpxtrkx:MaxElevation>58.776</gpxtrkx:MaxElevation><gpxtrkx:MinElevation>38.327</gpxtrkx:MinElevation><gpxtrkx:Ascent>58.000</gpxtrkx:Ascent><gpxtrkx:Descent>62.412</gpxtrkx:Descent><gpxtrkx:AvgAscentRate>0.032</gpxtrkx:AvgAscentRate><gpxtrkx:MaxAscentRate>0.047</gpxtrkx:MaxAscentRate><gpxtrkx:AvgDescentRate>0.035</gpxtrkx:AvgDescentRate><gpxtrkx:MaxDescentRate>-0.084</gpxtrkx:MaxDescentRate><gpxtrkx:Calories>167</gpxtrkx:Calories></gpxtrkx:TrackStatsExtension></extensions><trkseg><trkpt lat="51.9153877068" lon="-2.0489526261"><ele>46.10</ele><time>2022-01-05T10:00:38Z</time></trkpt><trkpt lat="51.9153860305" lon="-2.0489737485"><ele>44.43</ele><time>2022-01-05T10:01:12Z</time></trkpt><trkpt lat="51.9153842703" lon="-2.0489896741"><ele>47.57</ele><time>2022-01-05T10:01:23Z</time></trkpt><trkpt lat="51.9153936580" lon="-2.0490332600"><ele>45.88</ele><time>2022-01-05T10:01:51Z</time></trkpt><trkpt lat="51.9154196419" lon="-2.0490339305"><ele>45.88</ele><time>2022-01-05T10:02:20Z</time></trkpt><trkpt lat="51.9154094160" lon="-2.0490387920"><ele>45.88</ele><time>2022-01-05T10:02:50Z</time></trkpt><trkpt lat="51.9154012855" lon="-2.0490418095"><ele>45.88</ele><time>2022-01-05T10:03:20Z</time></trkpt><trkpt lat="51.9154996052" lon="-2.0490353554"><ele>45.88</ele><time>2022-01-05T10:03:43Z</time></trkpt><trkpt lat="51.9156724401" lon="-2.0490273088"><ele>45.88</ele><time>2022-01-05T10:04:04Z</time></trkpt><trkpt lat="51.9157981686" lon="-2.0490212739"><ele>45.88</ele><time>2022-01-05T10:04:25Z</time></trkpt><trkpt lat="51.9160562474" lon="-2.0489432383"><ele>45.88</ele><time>2022-01-05T10:04:51Z</time></trkpt><trkpt lat="51.9161766954" lon="-2.0489341859"><ele>44.11</ele><time>2022-01-05T10:05:04Z</time></trkpt><trkpt lat="51.9163921941" lon="-2.0488689747"><ele>43.90</ele><time>2022-01-05T10:05:25Z</time></trkpt><trkpt lat="51.9165978860" lon="-2.0488526300"><ele>43.79</ele><time>2022-01-05T10:05:47Z</time></trkpt><trkpt lat="51.9167478383" lon="-2.0488021709"><ele>43.86</ele><time>2022-01-05T10:06:06Z</time></trkpt><trkpt lat="51.9169303961" lon="-2.0487695653"><ele>44.15</ele><time>2022-01-05T10:06:27Z</time></trkpt><trkpt lat="51.9171425421" lon="-2.0486675575"><ele>44.51</ele><time>2022-01-05T10:06:48Z</time></trkpt><trkpt lat="51.9173240941" lon="-2.0486027654"><ele>44.82</ele><time>2022-01-05T10:07:09Z</time></trkpt><trkpt lat="51.9174937438" lon="-2.0485606045"><ele>45.11</ele><time>2022-01-05T10:07:33Z</time></trkpt><trkpt lat="51.9176072348" lon="-2.0485353749"><ele>45.30</ele><time>2022-01-05T10:07:46Z</time></trkpt><trkpt lat="51.9177844282" lon="-2.0484902803"><ele>45.73</ele><time>2022-01-05T10:08:05Z</time></trkpt><trkpt lat="51.9179477077" lon="-2.0484630391"><ele>46.72</ele><time>2022-01-05T10:08:30Z</time></trkpt><trkpt lat="51.9180819020" lon="-2.0484939683"><ele>46.42</ele><time>2022-01-05T10:08:43Z</time></trkpt><trkpt lat="51.9183088001" lon="-2.0484713372"><ele>47.68</ele><time>2022-01-05T10:09:08Z</time></trkpt><trkpt lat="51.9184631947" lon="-2.0484525617"><ele>48.53</ele><time>2022-01-05T10:09:30Z</time></trkpt><trkpt lat="51.9186567329" lon="-2.0484098978"><ele>48.89</ele><time>2022-01-05T10:09:53Z</time></trkpt><trkpt lat="51.9188968744" lon="-2.0484831557"><ele>48.89</ele><time>2022-01-05T10:10:15Z</time></trkpt><trkpt lat="51.9189994689" lon="-2.0487139933"><ele>48.81</ele><time>2022-01-05T10:10:35Z</time></trkpt><trkpt lat="51.9190446474" lon="-2.0490220282"><ele>48.18</ele><time>2022-01-05T10:10:54Z</time></trkpt><trkpt lat="51.9191123731" lon="-2.0492484234"><ele>47.95</ele><time>2022-01-05T10:11:14Z</time></trkpt><trkpt lat="51.9191852119" lon="-2.0495829452"><ele>47.47</ele><time>2022-01-05T10:11:37Z</time></trkpt><trkpt lat="51.9192020595" lon="-2.0496795047"><ele>47.72</ele><time>2022-01-05T10:11:44Z</time></trkpt><trkpt lat="51.9192574639" lon="-2.0499933232"><ele>46.93</ele><time>2022-01-05T10:12:06Z</time></trkpt><trkpt lat="51.9192935061" lon="-2.0502566826"><ele>46.01</ele><time>2022-01-05T10:12:26Z</time></trkpt><trkpt lat="51.9193592202" lon="-2.0505057089"><ele>45.66</ele><time>2022-01-05T10:12:46Z</time></trkpt><trkpt lat="51.9194042310" lon="-2.0505591016"><ele>45.16</ele><time>2022-01-05T10:13:12Z</time></trkpt><trkpt lat="51.9194675982" lon="-2.0506633725"><ele>45.38</ele><time>2022-01-05T10:13:32Z</time></trkpt><trkpt lat="51.9195827655" lon="-2.0509519614"><ele>44.42</ele><time>2022-01-05T10:13:56Z</time></trkpt><trkpt lat="51.9196522515" lon="-2.0511201024"><ele>44.11</ele><time>2022-01-05T10:14:14Z</time></trkpt><trkpt lat="51.9197789021" lon="-2.0511678793"><ele>44.22</ele><time>2022-01-05T10:14:35Z</time></trkpt><trkpt lat="51.9199057203" lon="-2.0510833897"><ele>45.31</ele><time>2022-01-05T10:14:52Z</time></trkpt><trkpt lat="51.9200967439" lon="-2.0510206092"><ele>45.98</ele><time>2022-01-05T10:15:14Z</time></trkpt><trkpt lat="51.9202133361" lon="-2.0510026719"><ele>46.19</ele><time>2022-01-05T10:15:33Z</time></trkpt><trkpt lat="51.9202896953" lon="-2.0509340242"><ele>45.86</ele><time>2022-01-05T10:15:58Z</time></trkpt><trkpt lat="51.9204697385" lon="-2.0508772787"><ele>45.72</ele><time>2022-01-05T10:16:23Z</time></trkpt><trkpt lat="51.9204869214" lon="-2.0508646220"><ele>45.30</ele><time>2022-01-05T10:16:45Z</time></trkpt><trkpt lat="51.9205086306" lon="-2.0508969761"><ele>46.38</ele><time>2022-01-05T10:17:12Z</time></trkpt><trkpt lat="51.9205434155" lon="-2.0508924499"><ele>46.02</ele><time>2022-01-05T10:17:37Z</time></trkpt><trkpt lat="51.9205585029" lon="-2.0508944616"><ele>43.34</ele><time>2022-01-05T10:17:41Z</time></trkpt><trkpt lat="51.9206521288" lon="-2.0508580003"><ele>46.56</ele><time>2022-01-05T10:17:51Z</time></trkpt><trkpt lat="51.9207387976" lon="-2.0507937111"><ele>47.31</ele><time>2022-01-05T10:17:59Z</time></trkpt><trkpt lat="51.9209322520" lon="-2.0507928729"><ele>45.45</ele><time>2022-01-05T10:18:16Z</time></trkpt><trkpt lat="51.9209888298" lon="-2.0507828146"><ele>45.41</ele><time>2022-01-05T10:18:22Z</time></trkpt><trkpt lat="51.9211133849" lon="-2.0506193675"><ele>46.08</ele><time>2022-01-05T10:18:39Z</time></trkpt><trkpt lat="51.9211273827" lon="-2.0505738538"><ele>45.30</ele><time>2022-01-05T10:18:48Z</time></trkpt><trkpt lat="51.9211731479" lon="-2.0505005121"><ele>42.03</ele><time>2022-01-05T10:18:56Z</time></trkpt><trkpt lat="51.9211931806" lon="-2.0504378155"><ele>44.68</ele><time>2022-01-05T10:19:00Z</time></trkpt><trkpt lat="51.9213335775" lon="-2.0500592887"><ele>44.24</ele><time>2022-01-05T10:19:22Z</time></trkpt><trkpt lat="51.9214352500" lon="-2.0497544389"><ele>42.54</ele><time>2022-01-05T10:19:40Z</time></trkpt><trkpt lat="51.9215029757" lon="-2.0495883934"><ele>40.86</ele><time>2022-01-05T10:19:59Z</time></trkpt><trkpt lat="51.9215711206" lon="-2.0495831966"><ele>40.74</ele><time>2022-01-05T10:20:17Z</time></trkpt><trkpt lat="51.9216152932" lon="-2.0494481642"><ele>41.91</ele><time>2022-01-05T10:20:41Z</time></trkpt><trkpt lat="51.9217957556" lon="-2.0492620859"><ele>42.63</ele><time>2022-01-05T10:21:02Z</time></trkpt><trkpt lat="51.9219263457" lon="-2.0490938611"><ele>43.64</ele><time>2022-01-05T10:21:22Z</time></trkpt><trkpt lat="51.9220531639" lon="-2.0489657018"><ele>44.03</ele><time>2022-01-05T10:21:40Z</time></trkpt><trkpt lat="51.9221835863" lon="-2.0488184318"><ele>44.21</ele><time>2022-01-05T10:22:00Z</time></trkpt><trkpt lat="51.9222745299" lon="-2.0487195253"><ele>44.31</ele><time>2022-01-05T10:22:12Z</time></trkpt><trkpt lat="51.9224036951" lon="-2.0485957246"><ele>43.80</ele><time>2022-01-05T10:22:31Z</time></trkpt><trkpt lat="51.9225134980" lon="-2.0484728459"><ele>43.76</ele><time>2022-01-05T10:22:49Z</time></trkpt><trkpt lat="51.9225181080" lon="-2.0484667271"><ele>40.20</ele><time>2022-01-05T10:22:51Z</time></trkpt><trkpt lat="51.9225207064" lon="-2.0484600216"><ele>40.20</ele><time>2022-01-05T10:22:52Z</time></trkpt><trkpt lat="51.9225573353" lon="-2.0484268293"><ele>40.20</ele><time>2022-01-05T10:23:13Z</time></trkpt><trkpt lat="51.9226845726" lon="-2.0483477041"><ele>41.75</ele><time>2022-01-05T10:23:28Z</time></trkpt><trkpt lat="51.9228420686" lon="-2.0482105762"><ele>42.10</ele><time>2022-01-05T10:23:49Z</time></trkpt><trkpt lat="51.9230339304" lon="-2.0481281821"><ele>41.46</ele><time>2022-01-05T10:24:14Z</time></trkpt><trkpt lat="51.9232143927" lon="-2.0482219756"><ele>39.94</ele><time>2022-01-05T10:24:37Z</time></trkpt><trkpt lat="51.9233645964" lon="-2.0482637174"><ele>38.99</ele><time>2022-01-05T10:24:55Z</time></trkpt><trkpt lat="51.9234767463" lon="-2.0481747855"><ele>38.37</ele><time>2022-01-05T10:25:17Z</time></trkpt><trkpt lat="51.9235317316" lon="-2.0481353067"><ele>38.79</ele><time>2022-01-05T10:25:38Z</time></trkpt><trkpt lat="51.9236750621" lon="-2.0480586123"><ele>38.73</ele><time>2022-01-05T10:26:00Z</time></trkpt><trkpt lat="51.9238789938" lon="-2.0480604563"><ele>38.73</ele><time>2022-01-05T10:26:25Z</time></trkpt><trkpt lat="51.9240242522" lon="-2.0478808321"><ele>38.73</ele><time>2022-01-05T10:26:50Z</time></trkpt><trkpt lat="51.9240915589" lon="-2.0477135293"><ele>41.22</ele><time>2022-01-05T10:27:03Z</time></trkpt><trkpt lat="51.9241353963" lon="-2.0475242659"><ele>41.72</ele><time>2022-01-05T10:27:21Z</time></trkpt><trkpt lat="51.9241607096" lon="-2.0472430531"><ele>42.15</ele><time>2022-01-05T10:27:43Z</time></trkpt><trkpt lat="51.9241386652" lon="-2.0469526201"><ele>43.36</ele><time>2022-01-05T10:28:08Z</time></trkpt><trkpt lat="51.9240585342" lon="-2.0467610098"><ele>43.20</ele><time>2022-01-05T10:28:30Z</time></trkpt><trkpt lat="51.9239959214" lon="-2.0464829821"><ele>43.20</ele><time>2022-01-05T10:28:53Z</time></trkpt><trkpt lat="51.9240072370" lon="-2.0461890288"><ele>43.59</ele><time>2022-01-05T10:29:16Z</time></trkpt><trkpt lat="51.9241395034" lon="-2.0459662378"><ele>44.46</ele><time>2022-01-05T10:29:40Z</time></trkpt><trkpt lat="51.9242745358" lon="-2.0457528345"><ele>45.17</ele><time>2022-01-05T10:30:05Z</time></trkpt><trkpt lat="51.9243987557" lon="-2.0455497410"><ele>46.25</ele><time>2022-01-05T10:30:30Z</time></trkpt><trkpt lat="51.9245846663" lon="-2.0452831127"><ele>47.13</ele><time>2022-01-05T10:31:02Z</time></trkpt><trkpt lat="51.9247394800" lon="-2.0450592320"><ele>47.13</ele><time>2022-01-05T10:31:29Z</time></trkpt><trkpt lat="51.9249309227" lon="-2.0447789412"><ele>47.95</ele><time>2022-01-05T10:31:58Z</time></trkpt><trkpt lat="51.9250696432" lon="-2.0445952937"><ele>49.00</ele><time>2022-01-05T10:32:23Z</time></trkpt><trkpt lat="51.9251811225" lon="-2.0444062818"><ele>49.43</ele><time>2022-01-05T10:32:44Z</time></trkpt><trkpt lat="51.9253170770" lon="-2.0442114864"><ele>50.05</ele><time>2022-01-05T10:33:04Z</time></trkpt><trkpt lat="51.9254340883" lon="-2.0440192055"><ele>50.80</ele><time>2022-01-05T10:33:22Z</time></trkpt><trkpt lat="51.9255588949" lon="-2.0438289363"><ele>51.53</ele><time>2022-01-05T10:33:43Z</time></trkpt><trkpt lat="51.9257020578" lon="-2.0436456241"><ele>52.37</ele><time>2022-01-05T10:34:03Z</time></trkpt><trkpt lat="51.9258283731" lon="-2.0434385911"><ele>54.18</ele><time>2022-01-05T10:34:23Z</time></trkpt><trkpt lat="51.9259475637" lon="-2.0432826877"><ele>55.17</ele><time>2022-01-05T10:34:42Z</time></trkpt><trkpt lat="51.9260623120" lon="-2.0431127865"><ele>56.04</ele><time>2022-01-05T10:35:00Z</time></trkpt><trkpt lat="51.9261745457" lon="-2.0429237746"><ele>57.09</ele><time>2022-01-05T10:35:21Z</time></trkpt><trkpt lat="51.9262783136" lon="-2.0427491795"><ele>57.45</ele><time>2022-01-05T10:35:37Z</time></trkpt><trkpt lat="51.9263892062" lon="-2.0424957108"><ele>58.18</ele><time>2022-01-05T10:36:00Z</time></trkpt><trkpt lat="51.9264230691" lon="-2.0424462575"><ele>58.25</ele><time>2022-01-05T10:36:25Z</time></trkpt><trkpt lat="51.9264197163" lon="-2.0424646977"><ele>58.34</ele><time>2022-01-05T10:36:49Z</time></trkpt><trkpt lat="51.9264384080" lon="-2.0424549747"><ele>58.71</ele><time>2022-01-05T10:36:58Z</time></trkpt><trkpt lat="51.9264230691" lon="-2.0424728282"><ele>58.10</ele><time>2022-01-05T10:37:28Z</time></trkpt><trkpt lat="51.9264187105" lon="-2.0424646139"><ele>57.99</ele><time>2022-01-05T10:37:55Z</time></trkpt><trkpt lat="51.9264266733" lon="-2.0424516220"><ele>58.28</ele><time>2022-01-05T10:38:20Z</time></trkpt><trkpt lat="51.9264567643" lon="-2.0424149930"><ele>58.28</ele><time>2022-01-05T10:38:47Z</time></trkpt><trkpt lat="51.9264579378" lon="-2.0424073655"><ele>58.28</ele><time>2022-01-05T10:39:10Z</time></trkpt><trkpt lat="51.9264638890" lon="-2.0424078684"><ele>58.28</ele><time>2022-01-05T10:39:35Z</time></trkpt><trkpt lat="51.9264353067" lon="-2.0424139872"><ele>58.28</ele><time>2022-01-05T10:39:59Z</time></trkpt><trkpt lat="51.9264431018" lon="-2.0424232911"><ele>58.28</ele><time>2022-01-05T10:40:21Z</time></trkpt><trkpt lat="51.9264405873" lon="-2.0424502809"><ele>58.28</ele><time>2022-01-05T10:40:45Z</time></trkpt><trkpt lat="51.9264448620" lon="-2.0424409769"><ele>58.28</ele><time>2022-01-05T10:41:10Z</time></trkpt><trkpt lat="51.9264430180" lon="-2.0424613450"><ele>58.28</ele><time>2022-01-05T10:41:34Z</time></trkpt><trkpt lat="51.9264732767" lon="-2.0424074493"><ele>58.28</ele><time>2022-01-05T10:42:05Z</time></trkpt><trkpt lat="51.9264976680" lon="-2.0423733350"><ele>58.28</ele><time>2022-01-05T10:42:29Z</time></trkpt><trkpt lat="51.9265077263" lon="-2.0423582476"><ele>58.28</ele><time>2022-01-05T10:42:55Z</time></trkpt><trkpt lat="51.9264760427" lon="-2.0424169209"><ele>58.28</ele><time>2022-01-05T10:43:24Z</time></trkpt><trkpt lat="51.9264697563" lon="-2.0424367022"><ele>58.28</ele><time>2022-01-05T10:43:44Z</time></trkpt><trkpt lat="51.9264577702" lon="-2.0424353611"><ele>58.28</ele><time>2022-01-05T10:44:09Z</time></trkpt><trkpt lat="51.9264646433" lon="-2.0424320921"><ele>58.28</ele><time>2022-01-05T10:44:47Z</time></trkpt><trkpt lat="51.9264603686" lon="-2.0424295776"><ele>54.59</ele><time>2022-01-05T10:45:19Z</time></trkpt><trkpt lat="51.9264551718" lon="-2.0424291585"><ele>55.00</ele><time>2022-01-05T10:45:20Z</time></trkpt><trkpt lat="51.9264304452" lon="-2.0424286555"><ele>56.40</ele><time>2022-01-05T10:45:46Z</time></trkpt><trkpt lat="51.9264687505" lon="-2.0424082875"><ele>56.53</ele><time>2022-01-05T10:46:24Z</time></trkpt><trkpt lat="51.9264651462" lon="-2.0424140710"><ele>55.99</ele><time>2022-01-05T10:46:54Z</time></trkpt><trkpt lat="51.9264650624" lon="-2.0424194355"><ele>56.04</ele><time>2022-01-05T10:47:36Z</time></trkpt><trkpt lat="51.9264774676" lon="-2.0424088743"><ele>56.17</ele><time>2022-01-05T10:48:21Z</time></trkpt><trkpt lat="51.9264883641" lon="-2.0424108859"><ele>56.72</ele><time>2022-01-05T10:48:33Z</time></trkpt><trkpt lat="51.9265011046" lon="-2.0424253866"><ele>56.27</ele><time>2022-01-05T10:49:02Z</time></trkpt><trkpt lat="51.9264779706" lon="-2.0424353611"><ele>56.80</ele><time>2022-01-05T10:49:35Z</time></trkpt><trkpt lat="51.9264583569" lon="-2.0424382109"><ele>55.68</ele><time>2022-01-05T10:50:09Z</time></trkpt><trkpt lat="51.9264601171" lon="-2.0424270630"><ele>54.97</ele><time>2022-01-05T10:50:23Z</time></trkpt><trkpt lat="51.9264434371" lon="-2.0424416475"><ele>55.63</ele><time>2022-01-05T10:50:57Z</time></trkpt><trkpt lat="51.9264145195" lon="-2.0424613450"><ele>56.53</ele><time>2022-01-05T10:51:28Z</time></trkpt><trkpt lat="51.9264472928" lon="-2.0424488559"><ele>55.86</ele><time>2022-01-05T10:52:01Z</time></trkpt><trkpt lat="51.9264518190" lon="-2.0424543880"><ele>56.73</ele><time>2022-01-05T10:52:33Z</time></trkpt><trkpt lat="51.9264735281" lon="-2.0424417313"><ele>56.73</ele><time>2022-01-05T10:53:05Z</time></trkpt><trkpt lat="51.9264897052" lon="-2.0424260572"><ele>56.73</ele><time>2022-01-05T10:53:37Z</time></trkpt><trkpt lat="51.9264642242" lon="-2.0424404740"><ele>56.73</ele><time>2022-01-05T10:54:09Z</time></trkpt><trkpt lat="51.9264547527" lon="-2.0424237940"><ele>56.73</ele><time>2022-01-05T10:54:36Z</time></trkpt><trkpt lat="51.9264637213" lon="-2.0424232911"><ele>56.73</ele><time>2022-01-05T10:55:08Z</time></trkpt><trkpt lat="51.9264580216" lon="-2.0424087066"><ele>56.73</ele><time>2022-01-05T10:55:36Z</time></trkpt><trkpt lat="51.9264458679" lon="-2.0424501970"><ele>56.73</ele><time>2022-01-05T10:56:31Z</time></trkpt><trkpt lat="51.9264457840" lon="-2.0424475148"><ele>56.73</ele><time>2022-01-05T10:57:01Z</time></trkpt><trkpt lat="51.9264520705" lon="-2.0424446650"><ele>56.73</ele><time>2022-01-05T10:57:34Z</time></trkpt><trkpt lat="51.9264664035" lon="-2.0424523763"><ele>56.73</ele><time>2022-01-05T10:58:05Z</time></trkpt><trkpt lat="51.9264747016" lon="-2.0424361154"><ele>56.73</ele><time>2022-01-05T10:58:37Z</time></trkpt><trkpt lat="51.9264770485" lon="-2.0424304157"><ele>56.73</ele><time>2022-01-05T10:59:06Z</time></trkpt><trkpt lat="51.9264730252" lon="-2.0424048509"><ele>56.73</ele><time>2022-01-05T10:59:39Z</time></trkpt><trkpt lat="51.9264702592" lon="-2.0424092095"><ele>56.73</ele><time>2022-01-05T11:00:09Z</time></trkpt><trkpt lat="51.9264471252" lon="-2.0423978101"><ele>56.73</ele><time>2022-01-05T11:00:38Z</time></trkpt><trkpt lat="51.9264602009" lon="-2.0424279012"><ele>56.73</ele><time>2022-01-05T11:01:05Z</time></trkpt><trkpt lat="51.9264607038" lon="-2.0424496941"><ele>56.73</ele><time>2022-01-05T11:01:33Z</time></trkpt><trkpt lat="51.9264353067" lon="-2.0424832217"><ele>56.73</ele><time>2022-01-05T11:02:06Z</time></trkpt><trkpt lat="51.9264535792" lon="-2.0424527116"><ele>56.73</ele><time>2022-01-05T11:02:37Z</time></trkpt><trkpt lat="51.9264847599" lon="-2.0424701460"><ele>56.73</ele><time>2022-01-05T11:03:08Z</time></trkpt><trkpt lat="51.9264779706" lon="-2.0424684696"><ele>56.73</ele><time>2022-01-05T11:03:38Z</time></trkpt><trkpt lat="51.9265165273" lon="-2.0424455870"><ele>56.73</ele><time>2022-01-05T11:04:11Z</time></trkpt><trkpt lat="51.9264741987" lon="-2.0424403902"><ele>56.73</ele><time>2022-01-05T11:04:40Z</time></trkpt><trkpt lat="51.9265047088" lon="-2.0424300805"><ele>56.73</ele><time>2022-01-05T11:05:09Z</time></trkpt><trkpt lat="51.9264942314" lon="-2.0424078684"><ele>56.73</ele><time>2022-01-05T11:05:36Z</time></trkpt><trkpt lat="51.9265120011" lon="-2.0424014982"><ele>56.73</ele><time>2022-01-05T11:06:07Z</time></trkpt><trkpt lat="51.9264809042" lon="-2.0424103830"><ele>56.73</ele><time>2022-01-05T11:06:38Z</time></trkpt><trkpt lat="51.9264490530" lon="-2.0424254704"><ele>56.73</ele><time>2022-01-05T11:07:11Z</time></trkpt><trkpt lat="51.9264672417" lon="-2.0424291585"><ele>56.73</ele><time>2022-01-05T11:08:10Z</time></trkpt><trkpt lat="51.9264576025" lon="-2.0424750913"><ele>56.73</ele><time>2022-01-05T11:08:35Z</time></trkpt><trkpt lat="51.9264637213" lon="-2.0424939506"><ele>57.13</ele><time>2022-01-05T11:08:55Z</time></trkpt><trkpt lat="51.9264607038" lon="-2.0424325112"><ele>56.93</ele><time>2022-01-05T11:09:17Z</time></trkpt><trkpt lat="51.9264586922" lon="-2.0424365345"><ele>54.27</ele><time>2022-01-05T11:09:43Z</time></trkpt><trkpt lat="51.9264585245" lon="-2.0424363669"><ele>58.19</ele><time>2022-01-05T11:09:48Z</time></trkpt><trkpt lat="51.9264610391" lon="-2.0424410608"><ele>58.97</ele><time>2022-01-05T11:09:50Z</time></trkpt><trkpt lat="51.9264568482" lon="-2.0424654521"><ele>57.32</ele><time>2022-01-05T11:10:10Z</time></trkpt><trkpt lat="51.9264444429" lon="-2.0424766000"><ele>57.12</ele><time>2022-01-05T11:10:33Z</time></trkpt><trkpt lat="51.9264529925" lon="-2.0424588304"><ele>57.07</ele><time>2022-01-05T11:10:53Z</time></trkpt><trkpt lat="51.9264574349" lon="-2.0424512029"><ele>57.13</ele><time>2022-01-05T11:11:20Z</time></trkpt><trkpt lat="51.9264539145" lon="-2.0424620993"><ele>57.33</ele><time>2022-01-05T11:11:41Z</time></trkpt><trkpt lat="51.9264524058" lon="-2.0424596686"><ele>57.33</ele><time>2022-01-05T11:12:02Z</time></trkpt><trkpt lat="51.9264514837" lon="-2.0424611773"><ele>57.33</ele><time>2022-01-05T11:12:27Z</time></trkpt><trkpt lat="51.9264412578" lon="-2.0424451679"><ele>57.33</ele><time>2022-01-05T11:12:48Z</time></trkpt><trkpt lat="51.9264622126" lon="-2.0424413122"><ele>57.33</ele><time>2022-01-05T11:13:13Z</time></trkpt><trkpt lat="51.9264421798" lon="-2.0424610935"><ele>57.33</ele><time>2022-01-05T11:13:33Z</time></trkpt><trkpt lat="51.9264464546" lon="-2.0424739178"><ele>57.33</ele><time>2022-01-05T11:14:01Z</time></trkpt><trkpt lat="51.9264484663" lon="-2.0424617641"><ele>57.33</ele><time>2022-01-05T11:14:28Z</time></trkpt><trkpt lat="51.9264460355" lon="-2.0424586628"><ele>57.33</ele><time>2022-01-05T11:14:47Z</time></trkpt><trkpt lat="51.9264477119" lon="-2.0424435753"><ele>57.33</ele><time>2022-01-05T11:15:12Z</time></trkpt><trkpt lat="51.9264213089" lon="-2.0425182581"><ele>57.33</ele><time>2022-01-05T11:15:37Z</time></trkpt><trkpt lat="51.9264405034" lon="-2.0425948687"><ele>57.33</ele><time>2022-01-05T11:15:59Z</time></trkpt><trkpt lat="51.9264793955" lon="-2.0426954515"><ele>56.17</ele><time>2022-01-05T11:16:19Z</time></trkpt><trkpt lat="51.9264328759" lon="-2.0427681226"><ele>56.21</ele><time>2022-01-05T11:16:27Z</time></trkpt><trkpt lat="51.9262255076" lon="-2.0428719744"><ele>55.03</ele><time>2022-01-05T11:16:46Z</time></trkpt><trkpt lat="51.9261043053" lon="-2.0429557934"><ele>54.35</ele><time>2022-01-05T11:17:03Z</time></trkpt><trkpt lat="51.9259530120" lon="-2.0429491717"><ele>54.07</ele><time>2022-01-05T11:17:25Z</time></trkpt><trkpt lat="51.9258271158" lon="-2.0429285523"><ele>53.71</ele><time>2022-01-05T11:17:43Z</time></trkpt><trkpt lat="51.9256970286" lon="-2.0430583041"><ele>52.72</ele><time>2022-01-05T11:18:04Z</time></trkpt><trkpt lat="51.9255666900" lon="-2.0431067515"><ele>51.68</ele><time>2022-01-05T11:18:25Z</time></trkpt><trkpt lat="51.9254355971" lon="-2.0430889819"><ele>51.24</ele><time>2022-01-05T11:18:44Z</time></trkpt><trkpt lat="51.9253038336" lon="-2.0430591423"><ele>51.20</ele><time>2022-01-05T11:19:03Z</time></trkpt><trkpt lat="51.9251949526" lon="-2.0430243574"><ele>50.54</ele><time>2022-01-05T11:19:20Z</time></trkpt><trkpt lat="51.9250709005" lon="-2.0429977030"><ele>49.90</ele><time>2022-01-05T11:19:42Z</time></trkpt><trkpt lat="51.9248846546" lon="-2.0428891573"><ele>49.94</ele><time>2022-01-05T11:20:12Z</time></trkpt><trkpt lat="51.9247864187" lon="-2.0428252034"><ele>49.94</ele><time>2022-01-05T11:20:29Z</time></trkpt><trkpt lat="51.9246476982" lon="-2.0427454915"><ele>49.94</ele><time>2022-01-05T11:20:49Z</time></trkpt><trkpt lat="51.9244960696" lon="-2.0427245367"><ele>49.94</ele><time>2022-01-05T11:21:12Z</time></trkpt><trkpt lat="51.9243233185" lon="-2.0427293982"><ele>49.94</ele><time>2022-01-05T11:21:35Z</time></trkpt><trkpt lat="51.9241360668" lon="-2.0427555498"><ele>49.94</ele><time>2022-01-05T11:22:02Z</time></trkpt><trkpt lat="51.9239924010" lon="-2.0427752472"><ele>49.94</ele><time>2022-01-05T11:22:23Z</time></trkpt><trkpt lat="51.9238623977" lon="-2.0428060926"><ele>49.94</ele><time>2022-01-05T11:22:44Z</time></trkpt><trkpt lat="51.9238192309" lon="-2.0428179950"><ele>45.95</ele><time>2022-01-05T11:22:50Z</time></trkpt><trkpt lat="51.9238111004" lon="-2.0428193361"><ele>46.57</ele><time>2022-01-05T11:22:51Z</time></trkpt><trkpt lat="51.9236555323" lon="-2.0428527799"><ele>46.58</ele><time>2022-01-05T11:23:11Z</time></trkpt><trkpt lat="51.9235251099" lon="-2.0428954437"><ele>46.04</ele><time>2022-01-05T11:23:32Z</time></trkpt><trkpt lat="51.9233757444" lon="-2.0429366827"><ele>45.65</ele><time>2022-01-05T11:23:53Z</time></trkpt><trkpt lat="51.9232435618" lon="-2.0429868065"><ele>45.42</ele><time>2022-01-05T11:24:12Z</time></trkpt><trkpt lat="51.9231048413" lon="-2.0430254471"><ele>44.97</ele><time>2022-01-05T11:24:33Z</time></trkpt><trkpt lat="51.9229474291" lon="-2.0430619083"><ele>44.15</ele><time>2022-01-05T11:24:54Z</time></trkpt><trkpt lat="51.9227706548" lon="-2.0430447254"><ele>43.04</ele><time>2022-01-05T11:25:19Z</time></trkpt><trkpt lat="51.9226796273" lon="-2.0430672728"><ele>42.09</ele><time>2022-01-05T11:25:40Z</time></trkpt><trkpt lat="51.9226142485" lon="-2.0430623274"><ele>41.74</ele><time>2022-01-05T11:26:02Z</time></trkpt><trkpt lat="51.9225186110" lon="-2.0431032311"><ele>42.22</ele><time>2022-01-05T11:26:26Z</time></trkpt><trkpt lat="51.9223588519" lon="-2.0431637485"><ele>43.86</ele><time>2022-01-05T11:26:50Z</time></trkpt><trkpt lat="51.9222635496" lon="-2.0432082564"><ele>43.91</ele><time>2022-01-05T11:27:11Z</time></trkpt><trkpt lat="51.9221767969" lon="-2.0432252716"><ele>44.56</ele><time>2022-01-05T11:27:29Z</time></trkpt><trkpt lat="51.9220171217" lon="-2.0432128664"><ele>44.84</ele><time>2022-01-05T11:27:54Z</time></trkpt><trkpt lat="51.9219619688" lon="-2.0432191528"><ele>44.86</ele><time>2022-01-05T11:28:02Z</time></trkpt><trkpt lat="51.9218894653" lon="-2.0432795025"><ele>44.28</ele><time>2022-01-05T11:28:25Z</time></trkpt><trkpt lat="51.9217566121" lon="-2.0433012955"><ele>44.61</ele><time>2022-01-05T11:28:48Z</time></trkpt><trkpt lat="51.9216924068" lon="-2.0432674326"><ele>44.59</ele><time>2022-01-05T11:29:11Z</time></trkpt><trkpt lat="51.9215841126" lon="-2.0433482341"><ele>44.59</ele><time>2022-01-05T11:29:32Z</time></trkpt><trkpt lat="51.9214172289" lon="-2.0433952566"><ele>44.66</ele><time>2022-01-05T11:29:52Z</time></trkpt><trkpt lat="51.9212454837" lon="-2.0434639882"><ele>45.12</ele><time>2022-01-05T11:30:12Z</time></trkpt><trkpt lat="51.9210776780" lon="-2.0435255952"><ele>45.18</ele><time>2022-01-05T11:30:33Z</time></trkpt><trkpt lat="51.9209577329" lon="-2.0435211528"><ele>44.97</ele><time>2022-01-05T11:30:53Z</time></trkpt><trkpt lat="51.9208704773" lon="-2.0434535109"><ele>45.09</ele><time>2022-01-05T11:31:11Z</time></trkpt><trkpt lat="51.9208519533" lon="-2.0434859488"><ele>44.99</ele><time>2022-01-05T11:31:37Z</time></trkpt><trkpt lat="51.9208284840" lon="-2.0435568597"><ele>45.50</ele><time>2022-01-05T11:32:06Z</time></trkpt><trkpt lat="51.9207675476" lon="-2.0435643196"><ele>45.17</ele><time>2022-01-05T11:32:31Z</time></trkpt><trkpt lat="51.9207244646" lon="-2.0435323846"><ele>44.70</ele><time>2022-01-05T11:32:56Z</time></trkpt><trkpt lat="51.9207205251" lon="-2.0435343124"><ele>46.26</ele><time>2022-01-05T11:33:01Z</time></trkpt><trkpt lat="51.9206624385" lon="-2.0435547642"><ele>46.15</ele><time>2022-01-05T11:33:25Z</time></trkpt><trkpt lat="51.9206463452" lon="-2.0434973482"><ele>47.33</ele><time>2022-01-05T11:33:50Z</time></trkpt><trkpt lat="51.9205051102" lon="-2.0435677562"><ele>46.00</ele><time>2022-01-05T11:34:13Z</time></trkpt><trkpt lat="51.9203643780" lon="-2.0436495636"><ele>46.56</ele><time>2022-01-05T11:34:34Z</time></trkpt><trkpt lat="51.9202490430" lon="-2.0437648986"><ele>46.17</ele><time>2022-01-05T11:34:52Z</time></trkpt><trkpt lat="51.9201136753" lon="-2.0438638888"><ele>46.17</ele><time>2022-01-05T11:35:11Z</time></trkpt><trkpt lat="51.9199782237" lon="-2.0439451933"><ele>46.20</ele><time>2022-01-05T11:35:29Z</time></trkpt><trkpt lat="51.9198275171" lon="-2.0440653060"><ele>45.53</ele><time>2022-01-05T11:35:49Z</time></trkpt><trkpt lat="51.9197426084" lon="-2.0441802219"><ele>45.47</ele><time>2022-01-05T11:36:06Z</time></trkpt><trkpt lat="51.9195986912" lon="-2.0442317706"><ele>45.39</ele><time>2022-01-05T11:36:24Z</time></trkpt><trkpt lat="51.9194610603" lon="-2.0442860853"><ele>45.39</ele><time>2022-01-05T11:36:41Z</time></trkpt><trkpt lat="51.9193071686" lon="-2.0443729218"><ele>45.22</ele><time>2022-01-05T11:37:02Z</time></trkpt><trkpt lat="51.9192243554" lon="-2.0444119815"><ele>45.83</ele><time>2022-01-05T11:37:13Z</time></trkpt><trkpt lat="51.9191982038" lon="-2.0444558188"><ele>45.69</ele><time>2022-01-05T11:37:31Z</time></trkpt><trkpt lat="51.9191574678" lon="-2.0445383806"><ele>45.33</ele><time>2022-01-05T11:37:46Z</time></trkpt><trkpt lat="51.9190952741" lon="-2.0445213653"><ele>45.87</ele><time>2022-01-05T11:38:05Z</time></trkpt><trkpt lat="51.9189855549" lon="-2.0445194375"><ele>45.33</ele><time>2022-01-05T11:38:24Z</time></trkpt><trkpt lat="51.9188784342" lon="-2.0445600059"><ele>45.35</ele><time>2022-01-05T11:38:46Z</time></trkpt><trkpt lat="51.9188432302" lon="-2.0445541386"><ele>45.13</ele><time>2022-01-05T11:39:04Z</time></trkpt><trkpt lat="51.9187781028" lon="-2.0445735008"><ele>45.90</ele><time>2022-01-05T11:39:27Z</time></trkpt><trkpt lat="51.9187200163" lon="-2.0445659570"><ele>45.89</ele><time>2022-01-05T11:39:52Z</time></trkpt><trkpt lat="51.9186205231" lon="-2.0445600897"><ele>46.56</ele><time>2022-01-05T11:40:12Z</time></trkpt><trkpt lat="51.9184561539" lon="-2.0446190983"><ele>46.53</ele><time>2022-01-05T11:40:32Z</time></trkpt><trkpt lat="51.9182704948" lon="-2.0446839742"><ele>46.93</ele><time>2022-01-05T11:41:00Z</time></trkpt><trkpt lat="51.9182407390" lon="-2.0446600020"><ele>46.98</ele><time>2022-01-05T11:41:02Z</time></trkpt><trkpt lat="51.9181186147" lon="-2.0447236206"><ele>46.45</ele><time>2022-01-05T11:41:22Z</time></trkpt><trkpt lat="51.9179225620" lon="-2.0448517799"><ele>46.90</ele><time>2022-01-05T11:41:48Z</time></trkpt><trkpt lat="51.9177468773" lon="-2.0449118782"><ele>46.65</ele><time>2022-01-05T11:42:18Z</time></trkpt><trkpt lat="51.9176182989" lon="-2.0449630078"><ele>46.96</ele><time>2022-01-05T11:42:39Z</time></trkpt><trkpt lat="51.9175240025" lon="-2.0450697094"><ele>46.96</ele><time>2022-01-05T11:43:00Z</time></trkpt><trkpt lat="51.9174121041" lon="-2.0451932587"><ele>46.96</ele><time>2022-01-05T11:43:17Z</time></trkpt><trkpt lat="51.9173755590" lon="-2.0451857988"><ele>46.96</ele><time>2022-01-05T11:43:39Z</time></trkpt><trkpt lat="51.9173216633" lon="-2.0451997966"><ele>46.96</ele><time>2022-01-05T11:43:59Z</time></trkpt><trkpt lat="51.9171544444" lon="-2.0452364255"><ele>46.96</ele><time>2022-01-05T11:44:19Z</time></trkpt><trkpt lat="51.9169695396" lon="-2.0452535246"><ele>46.64</ele><time>2022-01-05T11:44:42Z</time></trkpt><trkpt lat="51.9168105349" lon="-2.0452689473"><ele>46.37</ele><time>2022-01-05T11:45:00Z</time></trkpt><trkpt lat="51.9167120475" lon="-2.0452748984"><ele>45.79</ele><time>2022-01-05T11:45:18Z</time></trkpt><trkpt lat="51.9165605027" lon="-2.0452894829"><ele>44.62</ele><time>2022-01-05T11:45:35Z</time></trkpt><trkpt lat="51.9164841436" lon="-2.0452913269"><ele>44.53</ele><time>2022-01-05T11:45:43Z</time></trkpt><trkpt lat="51.9163502008" lon="-2.0452748984"><ele>43.92</ele><time>2022-01-05T11:45:59Z</time></trkpt><trkpt lat="51.9161931239" lon="-2.0452546142"><ele>44.10</ele><time>2022-01-05T11:46:19Z</time></trkpt><trkpt lat="51.9161237217" lon="-2.0451896545"><ele>43.48</ele><time>2022-01-05T11:46:38Z</time></trkpt><trkpt lat="51.9160564151" lon="-2.0451500081"><ele>43.63</ele><time>2022-01-05T11:46:57Z</time></trkpt><trkpt lat="51.9159114920" lon="-2.0451780036"><ele>43.19</ele><time>2022-01-05T11:47:18Z</time></trkpt><trkpt lat="51.9157047942" lon="-2.0452007186"><ele>43.32</ele><time>2022-01-05T11:47:44Z</time></trkpt><trkpt lat="51.9155835919" lon="-2.0452136267"><ele>43.56</ele><time>2022-01-05T11:48:03Z</time></trkpt><trkpt lat="51.9154703524" lon="-2.0452852082"><ele>43.71</ele><time>2022-01-05T11:48:24Z</time></trkpt><trkpt lat="51.9152587093" lon="-2.0453153830"><ele>44.18</ele><time>2022-01-05T11:48:48Z</time></trkpt><trkpt lat="51.9150652550" lon="-2.0453911554"><ele>44.62</ele><time>2022-01-05T11:49:06Z</time></trkpt><trkpt lat="51.9150224235" lon="-2.0455544349"><ele>44.25</ele><time>2022-01-05T11:49:26Z</time></trkpt><trkpt lat="51.9151251018" lon="-2.0457360707"><ele>44.79</ele><time>2022-01-05T11:49:49Z</time></trkpt><trkpt lat="51.9152149558" lon="-2.0460493863"><ele>44.79</ele><time>2022-01-05T11:50:14Z</time></trkpt><trkpt lat="51.9152766466" lon="-2.0463534817"><ele>44.79</ele><time>2022-01-05T11:50:34Z</time></trkpt><trkpt lat="51.9153484795" lon="-2.0466438308"><ele>44.79</ele><time>2022-01-05T11:50:55Z</time></trkpt><trkpt lat="51.9155560993" lon="-2.0468489360"><ele>44.78</ele><time>2022-01-05T11:51:20Z</time></trkpt><trkpt lat="51.9156617951" lon="-2.0470029116"><ele>40.62</ele><time>2022-01-05T11:51:35Z</time></trkpt><trkpt lat="51.9156711828" lon="-2.0470185857"><ele>40.86</ele><time>2022-01-05T11:51:36Z</time></trkpt><trkpt lat="51.9157274254" lon="-2.0472567994"><ele>39.44</ele><time>2022-01-05T11:51:59Z</time></trkpt><trkpt lat="51.9157604501" lon="-2.0474965218"><ele>40.65</ele><time>2022-01-05T11:52:20Z</time></trkpt><trkpt lat="51.9158206321" lon="-2.0478705224"><ele>40.90</ele><time>2022-01-05T11:52:46Z</time></trkpt><trkpt lat="51.9158501364" lon="-2.0481539145"><ele>40.69</ele><time>2022-01-05T11:53:06Z</time></trkpt><trkpt lat="51.9159192871" lon="-2.0485355426"><ele>41.67</ele><time>2022-01-05T11:53:37Z</time></trkpt><trkpt lat="51.9159385655" lon="-2.0487845689"><ele>41.67</ele><time>2022-01-05T11:53:59Z</time></trkpt><trkpt lat="51.9157843385" lon="-2.0489619300"><ele>41.67</ele><time>2022-01-05T11:54:20Z</time></trkpt><trkpt lat="51.9157447759" lon="-2.0489837229"><ele>41.67</ele><time>2022-01-05T11:54:25Z</time></trkpt><trkpt lat="51.9155928958" lon="-2.0490673743"><ele>41.67</ele><time>2022-01-05T11:54:51Z</time></trkpt><trkpt lat="51.9153742958" lon="-2.0490474254"><ele>41.67</ele><time>2022-01-05T11:55:15Z</time></trkpt><trkpt lat="51.9153017085" lon="-2.0490294881"><ele>41.67</ele><time>2022-01-05T11:55:32Z</time></trkpt><trkpt lat="51.9152976852" lon="-2.0489998162"><ele>41.67</ele><time>2022-01-05T11:55:52Z</time></trkpt><trkpt lat="51.9153063186" lon="-2.0490335114"><ele>41.67</ele><time>2022-01-05T11:56:04Z</time></trkpt></trkseg></trk></gpx>